CCK5 weather

Owen Sound (Cook Field)
Owen Sound, Ontario, Canada

Public forecast

Using degrees Celsius for public forecast. Weather courtesy of forecast.io.

METAR (pilot weather report)

Closest report is Wiarton Airport, 17.0 nm (31.4 km) WNW. Retrieved 2019/05/25 05:00 UTC (35 minutes ago):

CYVV 250500Z 13005KT 15SM FEW250 09/08 A3008 RMK CI2 SLP190

TAF (pilot weather forecast)

Forecast is more than 6 hours old.

Closest forecast is Wiarton Airport, 17.0 nm (31.4 km) WNW. Retrieved 2019/05/24 20:00 UTC (10 hours ago):

TAF CYVV 241939Z 2420/2423 VRB03KT P6SM BKN025 TEMPO 2420/2423 OVC020 RMK NXT FCST WILL BE ISSUED AT 251045Z